Agia Marina — SX5375 — position and weather

sailwx.info

Track history (hours):
 
Tides and Currents Weather Stations Pressure Air Temp Water Temp Dewpoint Dewpoint Depression Visibility Wind Speed Wind Dir Waves Ship Positions

Agia Marina

Last reported at 2017-Jun-28 19:30 UTC. Time now 2017-Jun-28 19:31 UTC.
Position N 38°02' E 023°36'.

Length 59 m; draft 2.5 m.

Type: Cargo ship. MMSI: 237042500.

Date/timePositionNaut miles runAvg speedWind from/ knotsBaromVisibWave heightAir tempDewpointWater temp
2017-Jun-28 19:30N 38°02' E 023°36'0 0.0
2017-Jun-28 19:00N 38°02' E 023°36'0 0.0
2017-Jun-28 18:30N 38°02' E 023°36'0 0.0
2017-Jun-28 17:57N 38°02' E 023°36'0 0.0
2017-Jun-28 17:30N 38°02' E 023°36'0 0.0
2017-Jun-28 17:00N 38°02' E 023°36'0 0.0
2017-Jun-28 16:30N 38°02' E 023°36'0 0.0
2017-Jun-28 16:00N 38°02' E 023°36'0 0.0
2017-Jun-28 15:30N 38°02' E 023°36'0 0.0
2017-Jun-28 15:00N 38°02' E 023°36'0 0.0
2017-Jun-28 14:00N 38°02' E 023°36'0 0.0
2017-Jun-28 13:30N 38°02' E 023°36'0 0.0
2017-Jun-28 13:00N 38°02' E 023°36'0 0.0
2017-Jun-28 12:30N 38°02' E 023°36'0 0.0
2017-Jun-28 12:00N 38°02' E 023°36'0 0.0
2017-Jun-28 11:30N 38°02' E 023°36'0 0.0
2017-Jun-28 11:00N 38°02' E 023°36'0 0.0
2017-Jun-28 10:30N 38°02' E 023°36'0 0.0
2017-Jun-28 10:00N 38°02' E 023°36'0 0.0
2017-Jun-28 09:30N 38°02' E 023°36'0 0.0
2017-Jun-28 08:57N 38°02' E 023°36'0 0.0
2017-Jun-28 08:30N 38°02' E 023°36'0 0.0
2017-Jun-28 08:00N 38°02' E 023°36'0 0.0
2017-Jun-28 07:30N 38°02' E 023°36'0 0.0
2017-Jun-28 07:00N 38°02' E 023°36'0 0.0
2017-Jun-28 06:30N 38°02' E 023°36'0 0.0
2017-Jun-28 06:00N 38°02' E 023°36'0 0.0
2017-Jun-28 05:30N 38°02' E 023°36'0 0.0
2017-Jun-28 05:00N 38°02' E 023°36'0 0.0
2017-Jun-28 04:30N 38°02' E 023°36'0 0.0
2017-Jun-28 04:00N 38°02' E 023°36'3 5.7
2017-Jun-28 03:30N 37°60' E 023°33'3 6.4
2017-Jun-28 03:00N 37°57' E 023°35'3 6.6
2017-Jun-28 02:30N 37°54' E 023°36'3 6.8
2017-Jun-28 02:00N 37°51' E 023°39'3 6.7
2017-Jun-28 01:30N 37°48' E 023°41'3 6.7
2017-Jun-28 01:00N 37°45' E 023°42'3 6.8
2017-Jun-28 00:30N 37°42' E 023°44'3 6.3
2017-Jun-28 00:00N 37°40' E 023°47'3 6.5
2017-Jun-27 23:29N 37°38' E 023°51'3 6.6
2017-Jun-27 23:00N 37°37' E 023°54'3 6.3
2017-Jun-27 22:30N 37°35' E 023°58'3 6.4
2017-Jun-27 22:00N 37°33' E 024°01'5 6.2
2017-Jun-27 21:15N 37°31' E 024°06'30 2.7
2017-Jun-27 10:18N 37°31' E 024°44'2 8.1
2017-Jun-27 10:00N 37°31' E 024°47'4 7.9
2017-Jun-27 09:30N 37°31' E 024°52'4 8.0
2017-Jun-27 09:00N 37°32' E 024°57'4 8.2
2017-Jun-27 08:29N 37°32' E 025°02'4 8.2
2017-Jun-27 08:00N 37°32' E 025°07'2 3.6
2017-Jun-27 07:30N 37°32' E 025°09'0 0.0
2017-Jun-27 07:00N 37°32' E 025°09'0 0.0
2017-Jun-27 06:30N 37°32' E 025°09'0 0.0
2017-Jun-27 06:00N 37°32' E 025°09'0 0.0
2017-Jun-27 05:18N 37°32' E 025°09'0 0.0
2017-Jun-27 05:00N 37°32' E 025°09'0 0.0
2017-Jun-27 04:27N 37°32' E 025°09'0 0.0
2017-Jun-27 03:57N 37°32' E 025°09'1 1.8
2017-Jun-27 03:30N 37°32' E 025°10'0 0.9
2017-Jun-27 03:00N 37°31' E 025°10'0 0.0
2017-Jun-27 02:27N 37°31' E 025°10'0 0.2
2017-Jun-27 02:00N 37°32' E 025°10'0 0.0
2017-Jun-27 01:30N 37°32' E 025°10'0 0.0
2017-Jun-27 01:00N 37°32' E 025°10'2 4.9
2017-Jun-27 00:30N 37°31' E 025°13'4 8.1
2017-Jun-27 00:01N 37°32' E 025°18'4 7.9
2017-Jun-26 23:30N 37°32' E 025°23'4 7.7
2017-Jun-26 23:00N 37°33' E 025°28'4 7.5
2017-Jun-26 22:31N 37°34' E 025°32'4 7.3
2017-Jun-26 22:01N 37°35' E 025°37'4 7.1
2017-Jun-26 21:31N 37°36' E 025°41'4 7.0
2017-Jun-26 20:59N 37°37' E 025°46'5 7.1
2017-Jun-26 20:13N 37°39' E 025°52'  
Track history (hours):
 
Tides and Currents Weather Stations Pressure Air Temp Water Temp Dewpoint Dewpoint Depression Visibility Wind Speed Wind Dir Waves Ship Positions

Agia Marina

Last reported at 2017-Jun-28 19:30 UTC. Time now 2017-Jun-28 19:31 UTC.
Position N 38°02' E 023°36'.

Length 59 m; draft 2.5 m.

Type: Cargo ship. MMSI: 237042500.

Date/timePositionNaut miles runAvg speedWind from/ knotsBaromVisibWave heightAir tempDewpointWater temp
2017-Jun-28 19:30N 38°02' E 023°36'0 0.0
2017-Jun-28 19:00N 38°02' E 023°36'0 0.0
2017-Jun-28 18:30N 38°02' E 023°36'0 0.0
2017-Jun-28 17:57N 38°02' E 023°36'0 0.0
2017-Jun-28 17:30N 38°02' E 023°36'0 0.0
2017-Jun-28 17:00N 38°02' E 023°36'0 0.0
2017-Jun-28 16:30N 38°02' E 023°36'0 0.0
2017-Jun-28 16:00N 38°02' E 023°36'0 0.0
2017-Jun-28 15:30N 38°02' E 023°36'0 0.0
2017-Jun-28 15:00N 38°02' E 023°36'0 0.0
2017-Jun-28 14:00N 38°02' E 023°36'0 0.0
2017-Jun-28 13:30N 38°02' E 023°36'0 0.0
2017-Jun-28 13:00N 38°02' E 023°36'0 0.0
2017-Jun-28 12:30N 38°02' E 023°36'0 0.0
2017-Jun-28 12:00N 38°02' E 023°36'0 0.0
2017-Jun-28 11:30N 38°02' E 023°36'0 0.0
2017-Jun-28 11:00N 38°02' E 023°36'0 0.0
2017-Jun-28 10:30N 38°02' E 023°36'0 0.0
2017-Jun-28 10:00N 38°02' E 023°36'0 0.0
2017-Jun-28 09:30N 38°02' E 023°36'0 0.0
2017-Jun-28 08:57N 38°02' E 023°36'0 0.0
2017-Jun-28 08:30N 38°02' E 023°36'0 0.0
2017-Jun-28 08:00N 38°02' E 023°36'0 0.0
2017-Jun-28 07:30N 38°02' E 023°36'0 0.0
2017-Jun-28 07:00N 38°02' E 023°36'0 0.0
2017-Jun-28 06:30N 38°02' E 023°36'0 0.0
2017-Jun-28 06:00N 38°02' E 023°36'0 0.0
2017-Jun-28 05:30N 38°02' E 023°36'0 0.0
2017-Jun-28 05:00N 38°02' E 023°36'0 0.0
2017-Jun-28 04:30N 38°02' E 023°36'0 0.0
2017-Jun-28 04:00N 38°02' E 023°36'3 5.7
2017-Jun-28 03:30N 37°60' E 023°33'3 6.4
2017-Jun-28 03:00N 37°57' E 023°35'3 6.6
2017-Jun-28 02:30N 37°54' E 023°36'3 6.8
2017-Jun-28 02:00N 37°51' E 023°39'3 6.7
2017-Jun-28 01:30N 37°48' E 023°41'3 6.7
2017-Jun-28 01:00N 37°45' E 023°42'3 6.8
2017-Jun-28 00:30N 37°42' E 023°44'3 6.3
2017-Jun-28 00:00N 37°40' E 023°47'3 6.5
2017-Jun-27 23:29N 37°38' E 023°51'3 6.6
2017-Jun-27 23:00N 37°37' E 023°54'3 6.3
2017-Jun-27 22:30N 37°35' E 023°58'3 6.4
2017-Jun-27 22:00N 37°33' E 024°01'5 6.2
2017-Jun-27 21:15N 37°31' E 024°06'30 2.7
2017-Jun-27 10:18N 37°31' E 024°44'2 8.1
2017-Jun-27 10:00N 37°31' E 024°47'4 7.9
2017-Jun-27 09:30N 37°31' E 024°52'4 8.0
2017-Jun-27 09:00N 37°32' E 024°57'4 8.2
2017-Jun-27 08:29N 37°32' E 025°02'4 8.2
2017-Jun-27 08:00N 37°32' E 025°07'2 3.6
2017-Jun-27 07:30N 37°32' E 025°09'0 0.0
2017-Jun-27 07:00N 37°32' E 025°09'0 0.0
2017-Jun-27 06:30N 37°32' E 025°09'0 0.0
2017-Jun-27 06:00N 37°32' E 025°09'0 0.0
2017-Jun-27 05:18N 37°32' E 025°09'0 0.0
2017-Jun-27 05:00N 37°32' E 025°09'0 0.0
2017-Jun-27 04:27N 37°32' E 025°09'0 0.0
2017-Jun-27 03:57N 37°32' E 025°09'1 1.8
2017-Jun-27 03:30N 37°32' E 025°10'0 0.9
2017-Jun-27 03:00N 37°31' E 025°10'0 0.0
2017-Jun-27 02:27N 37°31' E 025°10'0 0.2
2017-Jun-27 02:00N 37°32' E 025°10'0 0.0
2017-Jun-27 01:30N 37°32' E 025°10'0 0.0
2017-Jun-27 01:00N 37°32' E 025°10'2 4.9
2017-Jun-27 00:30N 37°31' E 025°13'4 8.1
2017-Jun-27 00:01N 37°32' E 025°18'4 7.9
2017-Jun-26 23:30N 37°32' E 025°23'4 7.7
2017-Jun-26 23:00N 37°33' E 025°28'4 7.5
2017-Jun-26 22:31N 37°34' E 025°32'4 7.3
2017-Jun-26 22:01N 37°35' E 025°37'4 7.1
2017-Jun-26 21:31N 37°36' E 025°41'4 7.0
2017-Jun-26 20:59N 37°37' E 025°46'5 7.1
2017-Jun-26 20:13N 37°39' E 025°52'  

Dump ship's entire track history